KCDS

Details ICAO KCDS (CDS)
Name CHILDRESS MUNI
Region United States
Timezone America/Chicago (UTC-6.0)
Plans Departing 1
Arriving 2
Stats Elevation 1,954 ft / 596 m (AMSL)
Location 34.432018° -100.289306°
Runways 3
Magnetic Variation 5.350° E
Sunrise 2017-12-15 13:41:54 UTC / 2017-12-15 07:41:54 Local
Sunset 2017-12-15 23:33:46 UTC / 2017-12-15 17:33:46 Local
Advertisement - Login to hide

Runways

ID Width Length Bearing (true) Bearing (mag) Surface Threshold Offset Overrun Length
04 60 ft / 18 m 4,426 ft / 1,349 m 46.76° 41.41° Asphalt 0 ft / 0 m 0 ft / 0 m
13 150 ft / 46 m 4,197 ft / 1,279 m 133.86° 128.51° Asphalt 0 ft / 0 m 0 ft / 0 m
17 75 ft / 23 m 5,965 ft / 1,818 m 181.85° 176.50° Asphalt 0 ft / 0 m 0 ft / 0 m
22 60 ft / 18 m 4,426 ft / 1,349 m 226.77° 221.42° Asphalt 0 ft / 0 m 0 ft / 0 m
31 150 ft / 46 m 4,197 ft / 1,279 m 313.86° 308.51° Asphalt 0 ft / 0 m 0 ft / 0 m
35 75 ft / 23 m 5,965 ft / 1,818 m 1.85° 356.50° Asphalt 0 ft / 0 m 0 ft / 0 m

Map

Weather


0- 5 10 15 20 25 30 35+ Temperature / ° C

Clouds and Precipitation
Forecast for 2017-12-16 00:00 UTC. Updated 37 minutes ago

Ground ~20,000 ft ~40,000 ft Winds

METAR

KCDS 152253Z AUTO 23011KT 10SM CLR 14/M05 A3012 RMK AO2 SLP201 T01391050

TAF

KCDS 152336Z 1600/1624 20011KT P6SM SKC

Frequencies

Recorded 135.12 MHz ASOS
Unicom 122.80 MHz CTAF/UNICOM
Warning: Do not use this data for real-world aviation or navigation. No guarantee of current accuracy is given.